Time;durP1;ratioP1;P1;durP2;ratioP2;P2;SDS_P1;SDS_P2;PMS_P1;PMS_P2;Temp;Humidity;BMP_temperature;BMP_pressure;BME280_temperature;BME280_humidity;BME280_pressure;Samples;Min_cycle;Max_cycle;Signal;HPM_P1;HPM_P2
2023/10/19 00:08:59;;;;;;;23.6;13.4;;;;;;;0.8;87.57;;;;;
2023/10/19 00:20:09;;;;;;;21.7;14.4;;;;;;;0.77;88.68;;;;;
2023/10/19 00:30:06;;;;;;;21.7;14.4;;;;;;;0.77;88.25;;;;;
2023/10/19 00:40:14;;;;;;;21.7;14.4;;;;;;;0.75;88.59;;;;;
2023/10/19 00:51:07;;;;;;;21.7;14.5;;;;;;;0.59;88.54;;;;;
2023/10/19 01:02:16;;;;;;;21.7;14.5;;;;;;;0.67;88.36;;;;;
2023/10/19 01:12:01;;;;;;;26;14.4;;;;;;;0.69;89.03;;;;;
2023/10/19 01:23:20;;;;;;;26;14.4;;;;;;;0.68;89.34;;;;;
2023/10/19 01:32:57;;;;;;;26;14.4;;;;;;;0.66;88.78;;;;;
2023/10/19 01:42:59;;;;;;;23.3;13.7;;;;;;;0.48;89.85;;;;;
2023/10/19 01:53:57;;;;;;;23.3;13.7;;;;;;;0.59;89.69;;;;;
2023/10/19 02:04:59;;;;;;;23.3;13.7;;;;;;;0.65;89.28;;;;;
2023/10/19 02:24:57;;;;;;;23.5;12.5;;;;;;;0.7;89.29;;;;;
2023/10/19 02:35:57;;;;;;;23.5;12.5;;;;;;;0.68;89.37;;;;;
2023/10/19 02:45:57;;;;;;;19.8;11.9;;;;;;;0.61;89.69;;;;;
2023/10/19 02:55:59;;;;;;;19.8;11.9;;;;;;;0.67;89.25;;;;;
2023/10/19 03:05:59;;;;;;;19.8;11.9;;;;;;;0.71;89.24;;;;;
2023/10/19 03:15:57;;;;;;;25.7;15;;;;;;;0.75;89.18;;;;;
2023/10/19 03:26:59;;;;;;;25.7;15;;;;;;;0.76;90.06;;;;;
2023/10/19 03:37:01;;;;;;;25.7;15;;;;;;;0.92;90.46;;;;;
2023/10/19 03:46:57;;;;;;;26.3;15.2;;;;;;;1.27;90.55;;;;;
2023/10/19 03:57:57;;;;;;;26.3;15.2;;;;;;;1.29;90.93;;;;;
2023/10/19 04:07:57;;;;;;;26.3;15.2;;;;;;;1.58;91.07;;;;;
2023/10/19 04:18:00;;;;;;;25.2;14.8;;;;;;;1.98;91.09;;;;;
2023/10/19 04:28:57;;;;;;;25.2;14.8;;;;;;;2.23;90.33;;;;;
2023/10/19 04:39:57;;;;;;;25.2;14.8;;;;;;;2.5;89.89;;;;;
2023/10/19 04:49:57;;;;;;;22.9;14.3;;;;;;;2.58;89.19;;;;;
2023/10/19 05:00:58;;;;;;;22.9;14.3;;;;;;;2.74;89.05;;;;;
2023/10/19 05:10:59;;;;;;;;;;;;;;;;;;;;;
2023/10/19 05:21:57;;;;;;;19.2;11.3;;;;;;;3.04;88.95;;;;;
2023/10/19 05:31:57;;;;;;;19.2;11.3;;;;;;;3.21;88.3;;;;;
2023/10/19 05:42:00;;;;;;;19.2;11.3;;;;;;;3.16;88.36;;;;;
2023/10/19 05:52:57;;;;;;;27.4;14.4;;;;;;;3.12;88.11;;;;;
2023/10/19 06:02:57;;;;;;;27.4;14.4;;;;;;;2.97;89.26;;;;;
2023/10/19 06:13:57;;;;;;;27.4;14.4;;;;;;;3.23;88.52;;;;;
2023/10/19 06:23:57;;;;;;;;;;;;;;;;;;;;;
2023/10/19 06:34:57;;;;;;;21.5;14.4;;;;;;;3.45;89.53;;;;;
2023/10/19 06:44:57;;;;;;;21.5;14.4;;;;;;;4.08;89.52;;;;;
2023/10/19 06:55:57;;;;;;;23;13.7;;;;;;;4.6;87.14;;;;;
2023/10/19 07:05:58;;;;;;;23;13.7;;;;;;;4.92;85.76;;;;;
2023/10/19 07:16:57;;;;;;;23;13.7;;;;;;;5.59;84.98;;;;;
2023/10/19 07:27:04;;;;;;;25.9;15.9;;;;;;;5.88;83.67;;;;;
2023/10/19 07:37:57;;;;;;;25.9;15.9;;;;;;;6.24;82.37;;;;;
2023/10/19 07:47:57;;;;;;;25.9;15.9;;;;;;;6.9;81.33;;;;;
2023/10/19 07:57:59;;;;;;;23.9;15.3;;;;;;;7.29;78.71;;;;;
2023/10/19 08:07:58;;;;;;;23.9;15.3;;;;;;;7.49;78.94;;;;;
2023/10/19 08:18:57;;;;;;;23.9;15.3;;;;;;;8.06;76.68;;;;;
2023/10/19 08:28:58;;;;;;;24.7;13.5;;;;;;;8.54;75.18;;;;;
2023/10/19 08:38:57;;;;;;;24.7;13.5;;;;;;;9.01;73.77;;;;;
2023/10/19 08:48:59;;;;;;;24.7;13.5;;;;;;;9.64;72.1;;;;;
2023/10/19 08:58:57;;;;;;;17.6;12;;;;;;;9.67;70.12;;;;;
2023/10/19 09:08:57;;;;;;;17.6;12;;;;;;;9.66;71.51;;;;;
2023/10/19 09:19:59;;;;;;;17.6;12;;;;;;;9.57;71.91;;;;;
2023/10/19 09:30:57;;;;;;;19.4;12.6;;;;;;;9.49;72.19;;;;;
2023/10/19 09:41:59;;;;;;;19.4;12.6;;;;;;;9.31;72.59;;;;;
2023/10/19 09:52:58;;;;;;;19.7;12.1;;;;;;;9.04;74.02;;;;;
2023/10/19 10:02:57;;;;;;;19.7;12.1;;;;;;;9.02;75.11;;;;;
2023/10/19 10:12:57;;;;;;;;;;;;;;;;;;;;;
2023/10/19 10:23:57;;;;;;;22.6;14.1;;;;;;;9.05;76.54;;;;;
2023/10/19 10:33:58;;;;;;;;;;;;;;;;;;;;;
2023/10/19 10:44:58;;;;;;;;;;;;;;;;;;;;;
2023/10/19 10:54:57;;;;;;;;;;;;;;;9.49;76.52;;;;;
2023/10/19 11:05:59;;;;;;;19;14.4;;;;;;;9.9;76.42;;;;;
2023/10/19 11:16:57;;;;;;;19;14.4;;;;;;;9.96;77.16;;;;;
2023/10/19 11:26:57;;;;;;;19;14.4;;;;;;;10.12;77.49;;;;;
2023/10/19 11:36:59;;;;;;;21.7;15.6;;;;;;;10.4;79;;;;;
2023/10/19 11:47:57;;;;;;;21.7;15.6;;;;;;;10.77;77.57;;;;;
2023/10/19 11:58:57;;;;;;;21.7;15.6;;;;;;;10.92;77.73;;;;;
2023/10/19 12:08:59;;;;;;;23.8;18.3;;;;;;;11.1;77.74;;;;;
2023/10/19 12:19:57;;;;;;;23.8;18.3;;;;;;;11.16;77.67;;;;;
2023/10/19 12:30:57;;;;;;;19.9;16.7;;;;;;;11;78.5;;;;;
2023/10/19 12:41:57;;;;;;;19.9;16.7;;;;;;;10.9;78.89;;;;;
2023/10/19 12:52:57;;;;;;;19.9;16.7;;;;;;;10.7;79.75;;;;;
2023/10/19 13:02:59;;;;;;;21.7;16.9;;;;;;;10.99;79.5;;;;;
2023/10/19 13:12:57;;;;;;;21.7;16.9;;;;;;;10.94;79.74;;;;;
2023/10/19 13:22:58;;;;;;;21.7;16.9;;;;;;;10.7;81.18;;;;;
2023/10/19 13:33:59;;;;;;;21.9;17.3;;;;;;;11.02;80.89;;;;;
2023/10/19 13:44:57;;;;;;;21.9;17.3;;;;;;;10.98;81.07;;;;;
2023/10/19 13:55:58;;;;;;;21.9;17.3;;;;;;;10.92;81.58;;;;;
2023/10/19 14:06:57;;;;;;;24.6;18.1;;;;;;;10.93;81.81;;;;;
2023/10/19 14:16:58;;;;;;;24.6;18.1;;;;;;;10.89;82.18;;;;;
2023/10/19 14:26:59;;;;;;;24.6;18.1;;;;;;;10.65;83.26;;;;;
2023/10/19 14:37:59;;;;;;;25.2;18.8;;;;;;;10.66;83.39;;;;;
2023/10/19 14:47:57;;;;;;;25.2;18.8;;;;;;;10.77;83.22;;;;;
2023/10/19 14:57:59;;;;;;;25.2;18.8;;;;;;;10.83;83.29;;;;;
2023/10/19 15:08:57;;;;;;;24.3;17.2;;;;;;;10.63;84.23;;;;;
2023/10/19 15:19:58;;;;;;;24.3;17.2;;;;;;;10.53;85.04;;;;;
2023/10/19 15:29:57;;;;;;;25.5;18.1;;;;;;;10.38;85.39;;;;;
2023/10/19 15:40:57;;;;;;;25.5;18.1;;;;;;;10.55;84.97;;;;;
2023/10/19 15:50:57;;;;;;;25.5;18.1;;;;;;;10.69;84.38;;;;;
2023/10/19 16:01:57;;;;;;;21.1;14.9;;;;;;;10.72;84.05;;;;;
2023/10/19 16:11:57;;;;;;;21.1;14.9;;;;;;;10.72;83.75;;;;;
2023/10/19 16:22:58;;;;;;;21.1;14.9;;;;;;;10.62;84.47;;;;;
2023/10/19 16:32:57;;;;;;;25.6;18.8;;;;;;;10.62;84.74;;;;;
2023/10/19 16:43:58;;;;;;;25.6;18.8;;;;;;;10.69;84.35;;;;;
2023/10/19 16:54:57;;;;;;;25.6;18.8;;;;;;;10.59;84.83;;;;;
2023/10/19 17:05:57;;;;;;;;;;;;;;;;;;;;;
2023/10/19 17:17:00;;;;;;;;;;;;;;;;;;;;;
2023/10/19 17:27:58;;;;;;;37.9;25.9;;;;;;;10.55;85.98;;;;;
2023/10/19 17:38:57;;;;;;;37.9;25.9;;;;;;;10.51;86.18;;;;;
2023/10/19 17:49:57;;;;;;;29.9;21.1;;;;;;;10.56;86.24;;;;;
2023/10/19 17:59:57;;;;;;;29.9;21.1;;;;;;;10.53;86.48;;;;;
2023/10/19 18:09:58;;;;;;;29.9;21.1;;;;;;;10.59;86.31;;;;;
2023/10/19 18:20:57;;;;;;;26.9;17.7;;;;;;;10.56;86.85;;;;;
2023/10/19 18:31:57;;;;;;;;;;;;;;;;;;;;;
2023/10/19 18:42:58;;;;;;;26.9;17.7;;;;;;;10.51;88.37;;;;;
2023/10/19 18:53:58;;;;;;;28.3;17.7;;;;;;;10.6;88.2;;;;;
2023/10/19 19:03:57;;;;;;;28.3;17.7;;;;;;;10.64;87.77;;;;;
2023/10/19 19:14:58;;;;;;;28.3;17.7;;;;;;;10.69;87.38;;;;;
2023/10/19 19:25:58;;;;;;;33.3;21.8;;;;;;;10.59;87.14;;;;;
2023/10/19 19:35:58;;;;;;;33.3;21.8;;;;;;;10.53;87.41;;;;;
2023/10/19 19:46:58;;;;;;;33.3;21.8;;;;;;;10.43;88.19;;;;;
2023/10/19 19:56:58;;;;;;;28.7;19.3;;;;;;;10.36;89.52;;;;;
2023/10/19 20:07:57;;;;;;;28.7;19.3;;;;;;;10.32;89.62;;;;;
2023/10/19 20:17:59;;;;;;;28.7;19.3;;;;;;;10.27;90.02;;;;;
2023/10/19 20:28:58;;;;;;;24;15.9;;;;;;;10.36;89.98;;;;;
2023/10/19 20:39:00;;;;;;;24;15.9;;;;;;;10.5;89.8;;;;;
2023/10/19 20:49:58;;;;;;;23.7;16.1;;;;;;;10.61;89.52;;;;;
2023/10/19 20:59:58;;;;;;;23.7;16.1;;;;;;;10.71;89.22;;;;;
2023/10/19 21:09:58;;;;;;;;;;;;;;;;;;;;;
2023/10/19 21:19:58;;;;;;;;;;;;;;;;;;;;;
2023/10/19 21:29:58;;;;;;;22.5;13.6;;;;;;;10.72;88.45;;;;;
2023/10/19 21:40:57;;;;;;;22.5;13.6;;;;;;;10.67;88.19;;;;;
2023/10/19 21:50:58;;;;;;;22.5;13.6;;;;;;;10.56;88.25;;;;;
2023/10/19 22:00:59;;;;;;;20.6;14;;;;;;;10.52;88.36;;;;;
2023/10/19 22:11:59;;;;;;;20.6;14;;;;;;;10.4;87.95;;;;;
2023/10/19 22:21:58;;;;;;;20.6;14;;;;;;;10.17;88.75;;;;;
2023/10/19 22:32:58;;;;;;;23.3;15.8;;;;;;;10.25;88.86;;;;;
2023/10/19 22:42:58;;;;;;;23.3;15.8;;;;;;;10.3;89.79;;;;;
2023/10/19 22:53:58;;;;;;;23.3;15.8;;;;;;;10.48;89.93;;;;;
2023/10/19 23:03:58;;;;;;;20.5;14.2;;;;;;;10.28;89.14;;;;;
2023/10/19 23:14:59;;;;;;;20.5;14.2;;;;;;;9.99;89.79;;;;;
2023/10/19 23:25:00;;;;;;;20.5;14.2;;;;;;;9.96;89.87;;;;;
2023/10/19 23:35:58;;;;;;;20.3;13.5;;;;;;;9.93;90.3;;;;;
2023/10/19 23:46:58;;;;;;;20.3;13.5;;;;;;;9.93;90.61;;;;;
2023/10/19 23:57:58;;;;;;;20.3;13.5;;;;;;;9.89;91.18;;;;;
